createdAt,value
2023-01-17T10:40:25.141Z,98873.63
2023-01-17T10:41:38.047Z,98875.41
2023-01-17T10:42:45.747Z,98870.86
2023-01-17T10:43:51.232Z,98874.11
2023-01-17T10:45:02.148Z,98875.18
2023-01-17T10:46:06.600Z,98871.94
2023-01-17T10:47:14.906Z,98878.98
2023-01-17T10:48:23.316Z,98869.11
2023-01-17T10:49:27.798Z,98865.64
2023-01-17T10:50:34.298Z,98862.55
2023-01-17T10:51:45.428Z,98860.12
2023-01-17T10:52:53.101Z,98866.55
2023-01-17T10:54:01.707Z,98860.63
2023-01-17T10:55:22.508Z,98866.18
2023-01-17T10:56:31.860Z,98864.59
2023-01-17T10:57:44.479Z,98864.20
2023-01-17T10:58:48.749Z,98865.89
2023-01-17T10:59:53.205Z,98858.84
2023-01-17T11:00:58.937Z,98863.91
2023-01-17T11:02:06.786Z,98862.23
2023-01-17T11:03:16.554Z,98855.47
2023-01-17T11:04:27.712Z,98852.41
2023-01-17T11:05:31.310Z,98853.45
2023-01-17T11:06:34.521Z,98854.91
2023-01-17T11:07:40.195Z,98849.56
2023-01-17T11:08:54.267Z,98856.08
2023-01-17T11:09:58.276Z,98856.46
2023-01-17T11:11:03.268Z,98847.45
2023-01-17T11:12:08.526Z,98845.47
2023-01-17T11:13:25.913Z,98843.97
2023-01-17T11:14:30.367Z,98851.05
2023-01-17T11:15:35.703Z,98835.05
2023-01-17T11:16:40.086Z,98837.36
2023-01-17T11:17:50.756Z,98837.81
2023-01-17T11:19:09.067Z,98835.18
2023-01-17T11:20:25.001Z,98841.94
2023-01-17T11:21:28.429Z,98831.25
2023-01-17T11:22:32.421Z,98830.67
2023-01-17T11:23:36.426Z,98840.20
2023-01-17T11:24:46.720Z,98836.22
2023-01-17T11:25:55.343Z,98831.41
2023-01-17T11:26:59.265Z,98834.24
2023-01-17T11:28:07.275Z,98838.14
2023-01-17T11:29:24.037Z,98835.31
2023-01-17T11:30:30.123Z,98826.38
2023-01-17T11:31:38.169Z,98833.63
2023-01-17T11:32:53.754Z,98828.56
2023-01-17T11:34:12.081Z,98832.36
2023-01-17T11:35:17.401Z,98828.17
2023-01-17T11:36:27.986Z,98825.83
2023-01-17T11:37:31.111Z,98839.69
2023-01-17T11:38:35.628Z,98828.79
2023-01-17T11:39:39.342Z,98821.00
2023-01-17T11:40:45.598Z,98825.05
2023-01-17T11:41:51.552Z,98829.23
2023-01-17T11:43:05.289Z,98831.86
2023-01-17T11:44:28.495Z,98825.63
2023-01-17T11:45:32.690Z,98819.23
2023-01-17T11:46:36.229Z,98825.02
2023-01-17T11:47:39.321Z,98816.64
2023-01-17T11:48:42.526Z,98806.42
2023-01-17T11:49:51.750Z,98817.48
2023-01-17T11:50:58.141Z,98820.50
2023-01-17T11:52:03.771Z,98813.46
2023-01-17T11:53:08.925Z,98802.23
2023-01-17T11:54:23.082Z,98799.70
2023-01-17T11:55:26.396Z,98812.75
2023-01-17T11:56:34.615Z,98808.53
2023-01-17T11:57:38.250Z,98795.38
2023-01-17T11:58:42.315Z,98799.41
2023-01-17T11:59:46.273Z,98806.55
2023-01-17T12:00:52.484Z,98813.79
2023-01-17T12:02:06.946Z,98802.88
2023-01-17T12:03:17.775Z,98802.23
2023-01-17T12:04:37.839Z,98799.93
2023-01-17T12:05:53.071Z,98807.81
2023-01-17T12:07:12.560Z,98802.10
2023-01-17T12:08:20.765Z,98796.23
2023-01-17T12:09:34.091Z,98795.52
2023-01-17T12:10:43.315Z,98790.88
2023-01-17T12:11:51.316Z,98802.66
2023-01-17T12:13:32.128Z,98804.73
2023-01-17T12:14:55.796Z,98802.84
2023-01-17T12:16:00.984Z,98793.08
2023-01-17T12:17:14.075Z,98795.38
2023-01-17T12:18:18.623Z,98797.81
2023-01-17T12:19:42.745Z,98806.13
2023-01-17T12:20:48.923Z,98796.75
2023-01-17T12:22:10.409Z,98808.01
2023-01-17T12:23:18.493Z,98797.07
2023-01-17T12:24:31.228Z,98795.73
2023-01-17T12:25:41.277Z,98796.87
2023-01-17T12:26:46.381Z,98800.16
2023-01-17T12:28:10.624Z,98789.31
2023-01-17T12:29:20.732Z,98793.83
2023-01-17T12:30:27.468Z,98790.45
2023-01-17T12:31:42.052Z,98797.40
2023-01-17T12:33:03.302Z,98784.77
2023-01-17T12:34:09.743Z,98781.00
2023-01-17T12:35:18.156Z,98774.78
2023-01-17T12:36:39.764Z,98776.36
2023-01-17T12:37:44.847Z,98771.40
2023-01-17T12:38:47.786Z,98771.40
2023-01-17T12:39:55.048Z,98774.87
2023-01-17T12:41:01.783Z,98771.69
2023-01-17T12:42:16.047Z,98768.09
2023-01-17T12:43:20.715Z,98767.05
2023-01-17T12:44:25.991Z,98782.82
2023-01-17T12:45:33.787Z,98770.42
2023-01-17T12:46:39.329Z,98762.22
2023-01-17T12:47:45.801Z,98768.55
2023-01-17T12:48:53.586Z,98779.16
2023-01-17T12:50:14.101Z,98770.33
2023-01-17T12:51:23.999Z,98776.72
2023-01-17T12:52:40.564Z,98770.62
2023-01-17T12:53:57.942Z,98774.84
2023-01-17T12:55:06.266Z,98769.29
2023-01-17T12:56:12.561Z,98770.06
2023-01-17T12:57:18.303Z,98782.17
2023-01-17T12:58:23.676Z,98772.41
2023-01-17T12:59:31.882Z,98775.88
2023-01-17T13:00:38.105Z,98772.63
2023-01-17T13:01:43.590Z,98780.75
2023-01-17T13:02:48.948Z,98775.03
2023-01-17T13:03:57.751Z,98766.20
2023-01-17T13:05:09.924Z,98775.27
2023-01-17T13:06:18.497Z,98778.64
2023-01-17T13:07:29.226Z,98775.36
2023-01-17T13:08:41.091Z,98765.91
2023-01-17T13:09:49.485Z,98773.16
2023-01-17T13:11:00.851Z,98778.80
2023-01-17T13:12:09.204Z,98775.22
2023-01-17T13:13:14.414Z,98782.45
2023-01-17T13:14:18.853Z,98782.82
2023-01-17T13:15:23.902Z,98781.36
2023-01-17T13:16:29.138Z,98789.80
2023-01-17T13:17:35.314Z,98796.84
2023-01-17T13:18:40.727Z,98798.63
2023-01-17T13:19:59.585Z,98808.76
2023-01-17T13:21:10.701Z,98796.45
2023-01-17T13:22:22.085Z,98804.11
2023-01-17T13:23:31.381Z,98798.14
2023-01-17T13:24:40.108Z,98796.13
2023-01-17T13:27:02.447Z,98796.70
2023-01-17T13:28:24.882Z,98797.91
2023-01-17T13:29:30.695Z,98791.81
2023-01-17T13:30:41.294Z,98789.44
2023-01-17T13:31:54.265Z,98793.20
2023-01-17T13:33:05.330Z,98788.59
2023-01-17T13:34:19.525Z,98792.91
2023-01-17T13:35:43.632Z,98788.69
2023-01-17T13:37:06.415Z,98792.56
2023-01-17T13:38:13.780Z,98788.89
2023-01-17T13:39:18.691Z,98787.95
2023-01-17T13:40:40.840Z,98780.91
2023-01-17T13:41:47.794Z,98773.02
2023-01-17T13:42:56.939Z,98768.41
2023-01-17T13:44:19.037Z,98771.88
2023-01-17T13:45:23.283Z,98756.59
2023-01-17T13:46:35.367Z,98739.36
2023-01-17T13:47:42.067Z,98738.39
2023-01-17T13:48:45.221Z,98755.43
2023-01-17T13:49:51.601Z,98758.35
2023-01-17T13:50:59.930Z,98752.91
2023-01-17T13:52:11.668Z,98755.53
2023-01-17T13:53:33.869Z,98746.80
2023-01-17T13:54:57.225Z,98749.42
2023-01-17T13:56:03.336Z,98752.08
2023-01-17T13:57:29.599Z,98751.02
2023-01-17T13:58:56.198Z,98750.27
2023-01-17T14:00:00.875Z,98756.77
2023-01-17T14:01:04.090Z,98751.76
2023-01-17T14:02:09.435Z,98753.77
2023-01-17T14:03:13.989Z,98756.08
2023-01-17T14:04:18.364Z,98749.13
2023-01-17T14:05:23.705Z,98755.75
2023-01-17T14:06:37.498Z,98753.45
2023-01-17T14:07:53.905Z,98766.46
2023-01-17T14:09:12.032Z,98754.59
2023-01-17T14:10:28.867Z,98766.27
2023-01-17T14:11:35.545Z,98762.59
2023-01-17T14:12:38.304Z,98777.43
2023-01-17T14:13:41.818Z,98768.48
2023-01-17T14:14:47.100Z,98762.47
2023-01-17T14:15:51.237Z,98769.74
2023-01-17T14:16:54.737Z,98769.22
2023-01-17T14:17:59.166Z,98763.84
2023-01-17T14:19:02.795Z,98773.83
2023-01-17T14:20:09.368Z,98770.36
2023-01-17T14:21:26.936Z,98771.53
2023-01-17T14:22:32.031Z,98765.11
2023-01-17T14:23:37.285Z,98762.28
2023-01-17T14:24:58.547Z,98758.91
2023-01-17T14:26:03.735Z,98763.71
2023-01-17T14:27:16.730Z,98765.66
2023-01-17T14:28:33.985Z,98762.89
2023-01-17T14:29:46.653Z,98762.70
2023-01-17T14:30:52.599Z,98754.48
2023-01-17T14:56:18.424Z,98760.16
2023-01-17T14:57:29.229Z,98766.09
2023-01-17T14:58:33.473Z,98766.73
2023-01-17T14:59:36.872Z,98770.66
2023-01-17T15:00:39.626Z,98766.10
2023-01-17T15:01:55.239Z,98760.13
2023-01-17T15:02:52.229Z,98754.02
2023-01-17T15:03:56.983Z,98753.58
2023-01-17T15:05:04.348Z,98754.52
2023-01-17T15:06:11.368Z,98759.69
2023-01-17T15:07:16.763Z,98756.75
2023-01-17T15:08:23.529Z,98757.50
2023-01-17T15:09:28.991Z,98756.11
2023-01-17T15:10:33.018Z,98750.45
2023-01-17T15:11:36.314Z,98750.85
2023-01-17T15:12:39.924Z,98757.80
2023-01-17T15:13:47.946Z,98753.80
2023-01-17T15:14:51.308Z,98754.97
2023-01-17T15:15:57.960Z,98754.97
2023-01-17T15:17:20.894Z,98755.07
2023-01-17T15:18:27.229Z,98741.81
2023-01-17T15:19:32.503Z,98754.02
2023-01-17T15:20:42.152Z,98761.48
2023-01-17T15:21:48.623Z,98757.50
2023-01-17T15:22:51.259Z,98750.66
2023-01-17T15:24:00.398Z,98755.08
2023-01-17T15:25:03.728Z,98755.08
2023-01-17T15:26:08.836Z,98747.82
2023-01-17T15:27:15.153Z,98745.49
2023-01-17T15:28:19.051Z,98754.12
2023-01-17T15:29:26.401Z,98746.75
2023-01-17T15:30:30.043Z,98744.86
2023-01-17T15:31:45.618Z,98752.75
2023-01-17T15:32:50.803Z,98748.23
2023-01-17T15:33:55.898Z,98739.49
2023-01-17T15:34:59.575Z,98749.47
2023-01-17T15:36:06.245Z,98749.38
2023-01-17T15:37:23.411Z,98757.06
2023-01-17T15:38:27.025Z,98746.14
2023-01-17T15:39:42.111Z,98750.02
2023-01-17T15:40:45.419Z,98749.07
2023-01-17T15:41:50.483Z,98753.83
2023-01-17T15:42:57.328Z,98752.45
2023-01-17T15:44:00.726Z,98754.33
2023-01-17T15:45:04.868Z,98737.80
2023-01-17T15:46:11.091Z,98743.81
2023-01-17T15:47:33.908Z,98743.30
2023-01-17T15:48:41.213Z,98753.48
2023-01-17T15:49:46.311Z,98751.30
2023-01-17T15:50:52.078Z,98746.55
2023-01-17T15:53:12.228Z,98752.04
2023-01-17T15:54:33.300Z,98766.14
2023-01-17T15:55:39.711Z,98758.25
2023-01-17T15:56:44.963Z,98757.30
2023-01-17T15:57:48.825Z,98756.22
2023-01-17T15:58:52.615Z,98749.52
2023-01-17T16:00:01.027Z,98738.88
2023-01-17T16:01:06.526Z,98744.66
2023-01-17T16:02:29.105Z,98745.94
2023-01-17T16:03:34.849Z,98756.97
2023-01-17T16:04:41.602Z,98760.14
2023-01-17T16:05:44.780Z,98758.25
2023-01-17T16:06:48.103Z,98752.98
2023-01-17T16:07:53.498Z,98753.70
2023-01-17T16:08:57.908Z,98761.92
2023-01-17T16:10:08.823Z,98758.34
